Latest Weather Observations for Cape Moreton

IDQ60901

Issued at 4:21 pm EST Thursday 28 January 2021 (issued every 10 minutes, with the page automatically refreshed every 10 minutes)

About weather observations | Map of Brisbane area stations | Latest observations for Brisbane area | Other Formats
Station Details ID: 040043 Name: CAPE MORETON LIGHTHOUSE Lat: -27.03 Lon: 153.47 Height: 99.9 m
Data from the previous 72 hours. | See also: Recent months at Cape Moreton
Date/Time
EST
Temp
°C
App
Temp
°C
Dew
Point
°C
Rel
Hum
%
Delta-T
°C
Wind Press
QNH
hPa
Press
MSL
hPa
Rain since
9am
mm
Dir  Spd
km/h
Gust
km/h
Spd
kts
Gust
kts
28/04:00pm 25.3 21.3 21.2 78 2.7 SE 44 54 24 29 1010.8 1010.3 0.0
28/03:30pm 25.7 21.2 21.1 76 3.0 SE 46 54 25 29 1010.8 1010.3 0.0
28/03:00pm 25.5 21.2 21.4 78 2.7 SE 46 54 25 29 1011.2 1010.7 0.0
28/02:30pm 25.6 21.6 21.3 77 2.9 SE 44 54 24 29 1011.0 1010.5 0.0
28/02:00pm 25.8 22.1 21.5 77 2.9 ESE 43 50 23 27 1011.6 1011.1 0.0
28/01:30pm 25.9 22.1 21.3 76 3.1 ESE 43 52 23 28 1011.7 1011.2 0.0
28/01:00pm 26.3 23.1 21.7 76 3.1 SE 41 50 22 27 1011.9 1011.4 0.0
28/12:30pm 27.5 24.9 22.2 73 3.6 SE 39 48 21 26 1012.1 1011.6 0.0
28/12:00pm 27.6 25.1 22.3 73 3.6 SE 39 48 21 26 1012.3 1011.8 0.0
28/11:30am 27.5 24.8 22.0 72 3.7 ESE 39 44 21 24 1012.7 1012.1 0.0
28/11:00am 27.3 24.4 21.6 71 3.8 ESE 39 46 21 25 1013.0 1012.4 0.0
28/10:30am 27.3 24.8 21.6 71 3.8 ESE 37 44 20 24 1013.0 1012.4 0.0
28/10:00am 26.9 25.6 22.1 75 3.2 ESE 32 43 17 23 1013.0 1012.4 0.0
28/09:30am 25.1 22.6 20.8 77 2.8 SE 35 57 19 31 1013.0 1012.4 0.0
28/09:22am 26.1 24.3 21.5 76 3.1 ESE 33 52 18 28 1012.9 1012.3 0.0
28/09:00am 26.8 24.4 21.8 74 3.4 ESE 37 46 20 25 1012.9 1012.3 0.2
28/08:30am 26.1 23.0 22.0 78 2.8 ESE 41 46 22 25 1012.7 1012.1 0.2
28/08:00am 24.1 21.7 21.8 87 1.5 ESE 37 44 20 24 1012.3 1011.8 0.2
28/07:30am 22.1 15.9 20.0 88 1.4 ESE 52 65 28 35 1012.1 1011.6 0.0
28/07:20am 23.9 19.1 20.4 81 2.3 ESE 46 65 25 35 1011.6 1011.1 0.0
28/07:19am 24.4 19.9 21.1 82 2.2 ESE 46 63 25 34 1011.7 1011.2 0.0
28/07:00am 25.7 23.6 21.6 78 2.7 ESE 35 41 19 22 1011.8 1011.3 0.0
28/06:30am 24.8 22.5 21.3 81 2.3 ESE 35 44 19 24 1011.6 1011.1 0.0
28/06:00am 24.6 22.6 21.1 81 2.3 ESE 33 39 18 21 1011.3 1010.8 0.0
28/05:30am 24.0 21.1 20.1 79 2.5 ESE 35 44 19 24 1010.9 1010.4 0.0
28/05:00am 24.2 21.3 20.9 82 2.2 ESE 37 44 20 24 1010.5 1010.0 0.0
28/04:30am 24.1 21.3 21.0 83 2.0 ESE 37 44 20 24 1010.2 1009.7 0.0
28/04:00am 24.3 22.5 21.6 85 1.8 ESE 33 41 18 22 1010.1 1009.6 0.0
28/03:30am 24.1 22.4 21.4 85 1.8 ESE 32 39 17 21 1010.0 1009.5 0.0
28/03:00am 24.2 22.2 21.9 87 1.5 ESE 35 43 19 23 1009.8 1009.3 0.0
28/02:30am 24.2 22.8 21.9 87 1.5 ESE 32 37 17 20 1009.9 1009.4 0.0
28/02:00am 24.0 23.0 21.3 85 1.8 ESE 28 33 15 18 1010.2 1009.7 0.0
28/01:30am 24.1 23.2 21.4 85 1.8 ESE 28 32 15 17 1010.3 1009.8 0.0
28/01:00am 24.2 23.7 21.5 85 1.8 ESE 26 33 14 18 1010.4 1009.9 0.0
28/12:30am 24.1 23.6 21.4 85 1.8 ESE 26 30 14 16 1010.6 1010.1 0.0
28/12:00am 24.2 24.1 21.5 85 1.8 ESE 24 30 13 16 1010.8 1010.3 0.0
 
Date/Time
EST
Temp
°C
App
Temp
°C
Dew
Point
°C
Rel
Hum
%
Delta-T
°C
Wind Press
QNH
hPa
Press
MSL
hPa
Rain since
9am
mm
Dir  Spd
km/h
Gust
km/h
Spd
kts
Gust
kts
27/11:30pm 24.3 23.5 21.6 85 1.8 ESE 28 33 15 18 1011.0 1010.5 0.0
27/11:00pm 24.2 23.1 21.1 83 2.0 ESE 28 33 15 18 1010.9 1010.4 0.0
27/10:30pm 24.4 24.8 21.7 85 1.8 ESE 22 28 12 15 1011.1 1010.6 0.0
27/10:00pm 24.4 24.3 21.5 84 1.9 E 24 30 13 16 1011.2 1010.7 0.0
27/09:30pm 24.6 24.8 22.1 86 1.7 E 24 32 13 17 1011.2 1010.7 0.0
27/09:00pm 24.6 24.3 21.9 85 1.8 E 26 32 14 17 1011.1 1010.6 0.0
27/08:30pm 24.7 24.0 21.8 84 1.9 E 28 32 15 17 1011.2 1010.7 0.0
27/08:00pm 24.6 24.6 21.7 84 1.9 E 24 30 13 16 1010.7 1010.2 0.0
27/07:30pm 24.6 24.4 21.3 82 2.2 E 24 30 13 16 1010.4 1009.9 0.0
27/07:00pm 24.8 24.8 21.7 83 2.1 E 24 30 13 16 1010.3 1009.8 0.0
27/06:30pm 25.2 26.0 21.7 81 2.3 E 20 28 11 15 1010.0 1009.5 0.0
27/06:00pm 25.6 25.3 21.1 76 3.0 E 24 28 13 15 1009.8 1009.3 0.0
27/05:30pm 25.8 26.6 21.7 78 2.7 E 20 26 11 14 1009.4 1008.9 0.0
27/05:00pm 25.9 26.1 22.0 79 2.6 E 24 28 13 15 1009.2 1008.7 0.0
27/04:30pm 26.4 27.1 22.3 78 2.8 E 22 26 12 14 1009.0 1008.5 0.0
27/04:00pm 26.6 27.4 22.4 78 2.8 ENE 22 26 12 14 1009.0 1008.5 0.0
27/03:30pm 26.7 27.3 22.1 76 3.1 ENE 22 28 12 15 1008.9 1008.4 0.0
27/03:00pm 27.1 28.4 22.3 75 3.2 ENE 19 22 10 12 1009.1 1008.6 0.0
27/02:30pm 27.6 29.3 22.3 73 3.6 ENE 17 20 9 11 1009.2 1008.7 0.0
27/02:00pm 27.7 29.1 22.6 74 3.5 ENE 19 20 10 11 1009.3 1008.8 0.0
27/01:30pm 28.3 30.6 23.4 75 3.4 ENE 17 19 9 10 1009.5 1009.0 0.0
27/01:00pm 28.8 31.3 23.2 71 3.9 ENE 15 17 8 9 1009.7 1009.2 0.0
27/12:30pm 27.9 29.5 22.2 71 3.9 NE 17 20 9 11 1009.7 1009.2 0.0
27/12:00pm 28.6 31.1 23.1 72 3.8 ENE 15 20 8 11 1009.8 1009.3 0.0
27/11:30am 27.7 29.1 22.6 74 3.5 ENE 19 24 10 13 1009.9 1009.4 0.0
27/11:00am 28.8 30.3 23.0 71 4.0 ENE 20 22 11 12 1010.1 1009.6 0.0
27/10:30am 28.3 30.2 22.8 72 3.8 ENE 17 20 9 11 1010.2 1009.7 0.0
27/10:00am 28.2 30.5 22.7 72 3.8 ENE 15 19 8 10 1010.2 1009.7 0.0
27/09:30am 28.6 30.7 23.1 72 3.8 ENE 17 20 9 11 1010.2 1009.7 0.0
27/09:00am 28.1 30.3 22.6 72 3.7 ENE 15 17 8 9 1010.0 1009.5 0.0
27/08:30am 27.6 29.3 22.3 73 3.6 ENE 17 19 9 10 1010.0 1009.5 0.0
27/08:00am 27.2 30.8 23.0 78 2.9 E 9 11 5 6 1009.8 1009.3 0.0
27/07:30am 25.3 28.7 22.0 82 2.2 NNE 7 11 4 6 1009.5 1009.0 0.0
27/07:00am 26.2 29.7 22.1 78 2.8 NNE 7 11 4 6 1009.4 1008.9 0.0
27/06:30am 24.7 27.6 21.8 84 1.9 NNE 9 11 5 6 1009.1 1008.6 0.0
27/06:00am 24.3 26.6 21.4 84 1.9 N 11 15 6 8 1008.8 1008.3 0.0
27/05:30am 24.2 26.0 21.1 83 2.0 N 13 17 7 9 1008.4 1007.9 0.0
27/05:00am 24.2 26.0 21.1 83 2.0 N 13 15 7 8 1008.0 1007.5 0.0
27/04:30am 24.2 26.6 21.5 85 1.8 N 11 13 6 7 1007.9 1007.4 0.0
27/04:00am 24.1 26.3 21.8 87 1.5 N 13 17 7 9 1007.7 1007.2 0.0
27/03:30am 24.0 26.3 22.1 89 1.3 N 13 17 7 9 1007.7 1007.2 0.0
27/03:00am 24.0 25.9 22.1 89 1.3 N 15 19 8 10 1007.7 1007.2 0.0
27/02:30am 24.2 26.6 22.3 89 1.3 N 13 17 7 9 1008.0 1007.5 0.0
27/02:00am 23.9 25.9 22.2 90 1.1 N 15 19 8 10 1007.9 1007.4 0.0
27/01:30am 24.0 25.3 21.7 87 1.5 NNE 17 22 9 12 1008.0 1007.5 0.0
27/01:00am 23.9 24.5 21.4 86 1.7 NNE 20 26 11 14 1008.1 1007.6 0.0
27/12:30am 23.8 24.2 21.7 88 1.4 NE 22 30 12 16 1008.3 1007.8 0.0
27/12:00am 24.0 23.9 22.3 90 1.1 NE 26 32 14 17 1008.4 1007.9 0.0
 
Date/Time
EST
Temp
°C
App
Temp
°C
Dew
Point
°C
Rel
Hum
%
Delta-T
°C
Wind Press
QNH
hPa
Press
MSL
hPa
Rain since
9am
mm
Dir  Spd
km/h
Gust
km/h
Spd
kts
Gust
kts
26/11:30pm 24.1 23.8 21.8 87 1.5 NE 26 32 14 17 1008.7 1008.2 0.0
26/11:00pm 24.0 24.1 21.9 88 1.4 NE 24 30 13 16 1008.8 1008.3 0.0
26/10:30pm 24.0 25.1 22.3 90 1.1 ENE 20 26 11 14 1009.1 1008.6 0.0
26/10:00pm 24.0 24.7 22.3 90 1.1 ENE 22 28 12 15 1009.3 1008.8 0.0
26/09:30pm 24.0 24.2 22.1 89 1.3 E 24 30 13 16 1009.3 1008.8 0.0
26/09:00pm 23.8 24.0 22.1 90 1.1 E 24 28 13 15 1009.2 1008.7 0.0
26/08:30pm 23.7 23.3 21.6 88 1.4 E 26 33 14 18 1008.8 1008.3 0.0
26/08:00pm 23.8 22.6 21.5 87 1.5 E 30 35 16 19 1008.4 1007.9 0.0
26/07:30pm 24.0 22.3 21.3 85 1.8 E 32 37 17 20 1008.0 1007.5 0.0
26/07:00pm 23.9 22.0 21.0 84 1.9 E 32 35 17 19 1007.6 1007.1 0.0
26/06:30pm 24.2 23.3 21.5 85 1.8 E 28 33 15 18 1007.5 1007.0 0.0
26/06:00pm 25.0 24.5 22.1 84 1.9 E 28 35 15 19 1007.2 1006.7 0.0
26/05:30pm 25.8 25.4 21.0 75 3.2 E 24 30 13 16 1006.8 1006.3 0.0
26/05:00pm 26.0 25.9 20.8 73 3.4 E 22 28 12 15 1006.6 1006.1 0.0
26/04:30pm 26.2 25.6 20.5 71 3.7 E 24 28 13 15 1006.5 1005.9 0.0
26/04:00pm 26.7 27.0 20.5 69 4.1 E 19 24 10 13 1006.7 1006.2 0.0
26/03:30pm 27.2 28.1 20.0 64 4.7 E 15 17 8 9 1007.0 1006.5 0.0
26/03:00pm 27.5 28.9 20.3 65 4.7 ESE 13 17 7 9 1007.1 1006.6 0.0
26/02:30pm 27.5 28.7 20.6 66 4.6 ENE 15 19 8 10 1007.3 1006.8 0.0
26/02:00pm 27.7 28.8 20.5 65 4.8 E 15 19 8 10 1007.6 1007.1 0.0
26/01:30pm 28.3 30.2 21.3 65 4.7 E 13 17 7 9 1007.8 1007.3 0.0
26/01:00pm 27.8 28.3 20.1 63 5.1 E 17 19 9 10 1008.1 1007.6 0.0
26/12:30pm 28.7 30.2 21.2 64 5.0 E 15 19 8 10 1008.2 1007.7 0.0
26/12:00pm 28.5 30.0 21.3 65 4.8 E 15 19 8 10 1008.5 1008.0 0.0
26/11:30am 28.5 30.5 21.5 66 4.7 ESE 13 17 7 9 1008.8 1008.3 0.0
26/11:00am 27.7 29.8 21.0 67 4.5 ESE 11 15 6 8 1009.1 1008.6 0.0
26/10:30am 27.8 29.6 21.1 67 4.5 ESE 13 19 7 10 1009.3 1008.8 0.0
26/10:00am 27.7 29.2 20.5 65 4.8 SE 13 19 7 10 1009.5 1009.0 0.0
26/09:30am 27.6 29.6 20.7 66 4.6 SE 11 17 6 9 1009.6 1009.1 0.0
26/09:00am 27.4 29.4 20.7 67 4.4 SE 11 17 6 9 1009.7 1009.2 0.2
26/08:30am 27.1 28.5 20.4 66 4.4 SE 13 17 7 9 1009.7 1009.2 0.2
26/08:00am 26.7 28.9 20.5 69 4.1 SE 9 15 5 8 1009.7 1009.2 0.2
26/07:30am 25.7 27.5 19.6 69 4.0 SE 9 13 5 7 1009.8 1009.3 0.2
26/07:00am 23.7 25.6 19.0 75 3.0 WSW 7 9 4 5 1009.7 1009.2 0.2
26/06:30am 22.4 23.7 18.4 78 2.5 WSW 9 9 5 5 1009.6 1009.1 0.2
26/06:00am 22.2 23.8 18.2 78 2.5 WSW 7 7 4 4 1009.4 1008.9 0.2
26/05:30am 22.2 23.9 18.4 79 2.4 W 7 9 4 5 1009.1 1008.6 0.2
26/05:00am 22.1 23.3 18.3 79 2.4 W 9 9 5 5 1008.8 1008.3 0.2
26/04:30am 22.3 23.7 17.9 76 2.7 NW 7 7 4 4 1008.5 1008.0 0.2
26/04:00am 22.7 25.5 18.0 75 2.9 CALM 0 0 0 0 1008.5 1008.0 0.2
26/03:30am 22.9 25.3 18.0 74 3.1 NNE 2 6 1 3 1008.4 1007.9 0.2
26/03:00am 22.8 24.4 18.3 76 2.8 NNE 7 11 4 6 1008.3 1007.8 0.2
26/02:30am 22.7 23.8 18.0 75 2.9 NNE 9 11 5 6 1008.6 1008.1 0.2
26/02:00am 22.9 24.2 18.4 76 2.8 NE 9 11 5 6 1009.1 1008.6 0.2
26/01:30am 22.9 23.6 18.9 78 2.5 E 13 15 7 8 1009.3 1008.8 0.2
26/01:00am 23.0 24.0 18.7 77 2.7 ENE 11 15 6 8 1009.5 1009.0 0.2
26/12:30am 22.9 22.9 18.9 78 2.5 E 17 22 9 12 1009.7 1009.2 0.2
26/12:00am 23.1 22.9 18.6 76 2.9 ENE 17 22 9 12 1009.9 1009.4 0.2
 
Date/Time
EST
Temp
°C
App
Temp
°C
Dew
Point
°C
Rel
Hum
%
Delta-T
°C
Wind Press
QNH
hPa
Press
MSL
hPa
Rain since
9am
mm
Dir  Spd
km/h
Gust
km/h
Spd
kts
Gust
kts
25/11:30pm 23.2 22.8 18.1 73 3.2 ENE 17 24 9 13 1010.2 1009.7 0.2
25/11:00pm 23.1 23.5 18.2 74 3.1 ENE 13 15 7 8 1010.4 1009.9 0.2
25/10:30pm 23.0 22.8 17.7 72 3.3 ENE 15 19 8 10 1010.5 1010.0 0.2
25/10:00pm 23.2 22.2 17.9 72 3.3 ENE 20 24 11 13 1010.7 1010.2 0.2
25/09:30pm 23.1 22.0 17.8 72 3.3 E 20 26 11 14 1010.5 1010.0 0.2
25/09:00pm 23.3 22.2 17.7 71 3.5 E 20 24 11 13 1010.6 1010.1 0.2
25/08:30pm 23.5 21.9 17.5 69 3.7 E 22 28 12 15 1010.6 1010.1 0.2
25/08:00pm 23.7 22.5 17.4 68 3.9 E 20 26 11 14 1010.3 1009.8 0.2
25/07:30pm 23.6 22.7 17.8 70 3.6 ENE 19 24 10 13 1010.2 1009.7 0.2
25/07:00pm 23.9 23.1 18.1 70 3.7 E 19 22 10 12 1010.2 1009.7 0.2
25/06:30pm 24.1 22.9 17.6 67 4.1 E 20 26 11 14 1010.1 1009.6 0.2
25/06:00pm 24.4 23.5 18.3 69 3.9 ENE 20 26 11 14 1009.9 1009.4 0.2
25/05:30pm 24.3 23.3 18.0 68 4.0 ENE 20 26 11 14 1009.7 1009.2 0.2
25/05:00pm 24.6 23.7 18.3 68 4.0 E 20 26 11 14 1009.7 1009.2 0.2
25/04:30pm 25.2 24.6 18.9 68 4.0 E 20 24 11 13 1009.6 1009.1 0.2

Latest Capital City Observations: Canberra | Sydney | Melbourne | Brisbane | Adelaide | Perth | Hobart | Darwin

Other formats

Comma delimited format used in spreadsheet applications
http://www.bom.gov.au/fwo/IDQ60901/IDQ60901.94594.axf

JavaScript Object Notation format (JSON) in row-major order
http://www.bom.gov.au/fwo/IDQ60901/IDQ60901.94594.json

Data quality

Most of these data are generated automatically and are frequently updated. Quality checks on data are not normally performed. It is possible for incorrect values to appear. Refer to information at About Latest Weather Observations and please check the disclaimer before using these data.